< Typhoon 200704 2007 Season Typhoon 200706 >
Typhoon 200705 (USAGI)
General InformationTrack Information on Google MapsDetailed Wind InformationAccess Analytics MapList of All Images || NewsDisaster Info.WeblogTrackbackTyphoon FrontResourceGoogle EarthGE AnimationAtom FeedGeoJSON
Detalied Best Track (Time Zone = UTC)
Year Month Day Hour Lat. Long. Pressure (hPa) Wind (kt) Class Image Chart
2007 7 27 12 19.0 155.3 1006 0 2 Image Chart
2007 7 27 18 18.2 153.3 1004 0 2 Image Chart
2007 7 28 00 17.8 150.8 1004 0 2 Image Chart
2007 7 28 06 17.5 149.7 1002 0 2 Image Chart
2007 7 28 12 17.7 149.4 1002 0 2 Image Chart
2007 7 28 18 18.1 148.4 1002 0 2 Image Chart
2007 7 29 00 18.1 146.6 1002 0 2 Image Chart
2007 7 29 06 18.3 144.5 1000 35 3 Image Chart
2007 7 29 12 18.5 143.8 996 40 3 Image Chart
2007 7 29 18 18.7 143.3 990 45 3 Image Chart
2007 7 30 00 19.2 142.5 985 55 4 Image Chart
2007 7 30 06 19.8 142.0 980 60 4 Image Chart
2007 7 30 12 20.4 141.4 980 65 5 Image Chart
2007 7 30 18 21.3 140.7 975 70 5 Image Chart
2007 7 31 00 21.8 140.3 970 70 5 Image Chart
2007 7 31 06 22.6 139.7 960 75 5 Image Chart
2007 7 31 12 23.4 139.0 955 80 5 Image Chart
2007 7 31 18 24.2 137.9 950 85 5 Image Chart
2007 8 1 00 25.1 137.1 945 90 5 Image Chart
2007 8 1 06 26.2 135.9 945 90 5 Image Chart
2007 8 1 12 27.5 135.1 945 90 5 Image Chart
2007 8 1 18 29.1 133.8 945 90 5 Image Chart
2007 8 1 21 29.9 133.2 945 90 5 Image Chart
2007 8 2 00 30.6 132.8 945 90 5 Image Chart
2007 8 2 03 31.3 132.3 955 85 5 Image Chart
2007 8 2 06 31.8 131.9 960 80 5 Image Chart
2007 8 2 08 32.3 131.7 960 80 5 Image Chart
2007 8 2 09 32.5 131.6 965 70 5 Image Chart
2007 8 2 12 33.0 131.4 975 60 4 Image Chart
2007 8 2 15 33.6 131.4 985 55 4 Image Chart
2007 8 2 16 33.9 131.3 985 55 4 Image Chart
2007 8 2 18 34.3 131.3 990 50 4 Image Chart
2007 8 2 21 35.3 131.6 990 45 3 Image Chart
2007 8 3 00 35.9 132.1 992 45 3 Image Chart
2007 8 3 03 36.3 132.8 992 45 3 Image Chart
2007 8 3 06 36.9 133.5 994 40 3 Image Chart
2007 8 3 09 37.7 134.4 994 40 3 Image Chart
2007 8 3 12 38.3 135.1 994 40 3 Image Chart
2007 8 3 15 39.0 135.9 994 40 3 Image Chart
2007 8 3 18 39.5 136.7 994 40 3 Image Chart
2007 8 3 21 40.2 137.8 994 40 3 Image Chart
2007 8 4 00 40.7 139.0 996 40 3 Image Chart
2007 8 4 03 41.1 140.1 998 35 3 Image Chart
2007 8 4 04 41.1 140.4 998 35 3 Image Chart
2007 8 4 05 41.2 140.8 1000 35 3 Image Chart
2007 8 4 06 41.6 141.6 1000 0 2 Image Chart
2007 8 4 12 42.0 145.4 1000 0 6 Image Chart
2007 8 4 18 42.3 148.9 1000 0 6 Image Chart
Japan Meteorological Agency Best Track Data | Correction Date : 2007-12-07
< Typhoon 200704 2007 Season Typhoon 200706 >

Help